DEKT2: Red River, Dekalb, TX

                                SHEF ID:       DEKT2     Red River near De Kalb, TX
STATION TYPE: Stream Gauge
Regulating: Stage = 23.70, Flow = 62933

PRECIP STAGE STAGE(2) RIV-FLOW BAT-LOAD
in ft ft cfs volt
Ccp-Rev Ccp-Rev Ccp-Rev Ccp-Rev Ccp-Rev
(America/Chicago)
05/05 00:00 0.00 9.88 ---- 5571 12.65
05/05 01:00 0.00 9.86 ---- 5536 12.65
05/05 02:00 0.00 9.83 ---- 5484 12.65
05/05 03:00 0.00 9.81 ---- 5449 12.57
05/05 04:00 0.00 9.78 ---- 5398 12.57
05/05 05:00 0.00 9.76 ---- 5363 12.57
05/05 06:00 0.00 9.73 ---- 5311 12.57
05/05 07:00 0.00 9.70 ---- 5260 12.57
05/05 08:00 0.00 9.68 ---- 5226 12.49
05/05 09:00 0.00 9.65 ---- 5175 12.57
05/05 10:00 0.00 9.62 ---- 5124 12.65
05/05 11:00 0.00 9.58 ---- 5056 12.81
05/05 12:00 0.00 9.56 ---- 5023 13.21
05/05 13:00 0.00 9.53 ---- 4972 13.29
05/05 14:00 0.00 9.46 ---- 4855 13.21
05/05 15:00 0.00 9.46 ---- 4855 13.21
05/05 16:00 0.00 9.44 ---- 4822 13.29
05/05 17:00 0.00 9.38 ---- 4723 13.29
05/05 18:00 0.00 9.38 ---- 4723 13.13
05/05 19:00 0.00 9.35 ---- 4674 13.05
05/05 20:00 0.00 9.34 ---- 4658 12.81
05/05 21:00 0.00 9.31 ---- 4609 12.73
05/05 22:00 0.00 9.29 ---- 4576 12.73
05/05 23:00 0.00 9.25 ---- 4512 12.65
Data processed at Wed 06May2026 04:30 GMT

NOTICE: If you are parsing this page

Please convert to using our Data API. Starting early 2026 we will be migrating to: https://water.usace.army.mil with modern pages rendered in JavaScript. When this migration completes you will no longer be able to scrape this page! CWMSDataAPI (CDA)

Timeseries IDs (TSIDs)

TSIDs used from left to right in the data table
DEKA.Precip-Inc.Total.1Hour.1Hour.Ccp-Rev
DEKA.Stage.Inst.1Hour.0.Ccp-Rev
DEKA.Stage-Alt.Inst.1Hour.0.Ccp-Rev
DEKA.Flow.Inst.1Hour.0.Ccp-Rev
DEKA.Volt-Battery Load.Inst.1Hour.0.Ccp-Rev

                            

All information presented herein is the property of the government of the United States of America and may be revised or deleted at any time without prior notice. Dissemination of this information without the expressed written consent of the Public Affairs Office, Tulsa District U.S. Army Corps of Engineers is strictly prohibited. These data are gathered electronically and, as presented, have NOT undergone any form of quality control. These data are NOT guaranteed to be valid or correct.